createdAt,value
2022-08-17T00:00:34.437Z,98479.16
2022-08-17T00:03:18.367Z,98470.34
2022-08-17T00:05:56.665Z,98473.44
2022-08-17T00:08:31.072Z,98468.22
2022-08-17T00:10:59.201Z,98474.94
2022-08-17T00:13:36.919Z,98480.78
2022-08-17T00:16:14.532Z,98479.16
2022-08-17T00:19:01.925Z,98474.75
2022-08-17T00:21:49.179Z,98477.84
2022-08-17T00:24:18.757Z,98484.84
2022-08-17T00:26:47.274Z,98481.06
2022-08-17T00:29:19.415Z,98485.84
2022-08-17T00:31:48.397Z,98490.72
2022-08-17T00:34:15.877Z,98492.84
2022-08-17T00:36:43.128Z,98490.84
2022-08-17T00:39:10.311Z,98492.97
2022-08-17T00:41:37.727Z,98489.72
2022-08-17T00:44:12.113Z,98494.16
2022-08-17T00:46:42.381Z,98494.47
2022-08-17T00:49:12.254Z,98490.03
2022-08-17T00:51:46.650Z,98489.22
2022-08-17T00:54:23.144Z,98479.06
2022-08-17T00:56:57.461Z,98483.50
2022-08-17T00:59:32.805Z,98483.34
2022-08-17T01:02:00.955Z,98485.28
2022-08-17T01:04:30.505Z,98492.78
2022-08-17T01:06:58.680Z,98483.97
2022-08-17T01:09:26.599Z,98484.28
2022-08-17T01:11:54.169Z,98480.38
2022-08-17T01:14:26.910Z,98488.22
2022-08-17T01:16:56.568Z,98490.97
2022-08-17T01:19:29.289Z,98484.13
2022-08-17T01:22:11.794Z,98489.16
2022-08-17T01:24:44.206Z,98486.41
2022-08-17T01:27:14.926Z,98486.75
2022-08-17T01:29:52.036Z,98489.00
2022-08-17T01:32:20.024Z,98489.34
2022-08-17T01:34:50.230Z,98483.63
2022-08-17T01:37:21.275Z,98495.03
2022-08-17T01:39:54.971Z,98486.72
2022-08-17T01:42:52.563Z,98487.66
2022-08-17T01:45:25.860Z,98490.75
2022-08-17T01:47:54.992Z,98488.63
2022-08-17T01:50:30.744Z,98496.97
2022-08-17T01:53:09.340Z,98500.03
2022-08-17T01:55:48.176Z,98500.03
2022-08-17T01:58:15.837Z,98501.50
2022-08-17T02:00:59.609Z,98497.09
2022-08-17T02:03:29.992Z,98502.16
2022-08-17T02:05:57.987Z,98493.31
2022-08-17T02:08:37.105Z,98492.84
2022-08-17T02:11:15.859Z,98492.03
2022-08-17T02:13:45.348Z,98487.44
2022-08-17T02:16:13.391Z,98483.50
2022-08-17T02:18:41.498Z,98488.34
2022-08-17T02:21:10.214Z,98495.03
2022-08-17T02:23:42.444Z,98486.41
2022-08-17T02:26:09.783Z,98485.56
2022-08-17T02:28:53.704Z,98483.31
2022-08-17T02:31:21.401Z,98485.75
2022-08-17T02:34:04.005Z,98484.09
2022-08-17T02:36:33.862Z,98484.44
2022-08-17T02:39:07.621Z,98481.97
2022-08-17T02:41:34.909Z,98485.56
2022-08-17T02:44:02.431Z,98488.34
2022-08-17T02:46:31.125Z,98491.44
2022-08-17T02:48:59.607Z,98494.19
2022-08-17T02:51:27.786Z,98499.25
2022-08-17T02:54:05.344Z,98493.69
2022-08-17T02:56:42.825Z,98504.28
2022-08-17T02:59:10.089Z,98500.19
2022-08-17T03:01:37.497Z,98496.59
2022-08-17T03:04:05.149Z,98502.13
2022-08-17T03:06:32.550Z,98504.22
2022-08-17T03:08:59.829Z,98498.66
2022-08-17T03:11:27.265Z,98504.22
2022-08-17T03:13:54.775Z,98498.19
2022-08-17T03:16:22.089Z,98501.59
2022-08-17T03:18:49.371Z,98498.84
2022-08-17T03:21:16.755Z,98504.38
2022-08-17T03:23:44.006Z,98497.19
2022-08-17T03:26:15.592Z,98498.00
2022-08-17T03:28:43.604Z,98498.31
2022-08-17T03:31:11.017Z,98491.94
2022-08-17T03:33:38.329Z,98498.97
2022-08-17T03:36:06.991Z,98505.44
2022-08-17T03:38:38.883Z,98501.56
2022-08-17T03:41:07.494Z,98503.81
2022-08-17T03:43:34.897Z,98498.25
2022-08-17T03:46:28.979Z,98493.84
2022-08-17T03:49:26.430Z,98496.31
2022-08-17T03:52:16.442Z,98501.56
2022-08-17T03:55:14.696Z,98504.44
2022-08-17T03:57:42.074Z,98509.47
2022-08-17T04:00:10.018Z,98518.31
2022-08-17T04:02:37.350Z,98514.41
2022-08-17T04:05:05.054Z,98517.66
2022-08-17T04:07:32.403Z,98522.91
2022-08-17T04:10:00.163Z,98518.50
2022-08-17T04:12:31.173Z,98523.22
2022-08-17T04:14:59.142Z,98518.00
2022-08-17T04:17:28.993Z,98520.13
2022-08-17T04:19:56.961Z,98525.69
2022-08-17T04:22:31.130Z,98520.63
2022-08-17T04:25:05.015Z,98527.81
2022-08-17T04:27:32.443Z,98528.63
2022-08-17T04:29:59.809Z,98530.59
2022-08-17T04:32:58.586Z,98522.28
2022-08-17T04:35:21.732Z,98526.03
2022-08-17T04:37:49.284Z,98529.34
2022-08-17T04:40:37.508Z,98530.94
2022-08-17T04:43:14.609Z,98534.53
2022-08-17T04:45:51.312Z,98534.53
2022-08-17T04:48:32.208Z,98537.84
2022-08-17T04:51:11.002Z,98546.44
2022-08-17T04:53:40.850Z,98548.41
2022-08-17T04:56:11.719Z,98553.13
2022-08-17T04:58:50.396Z,98554.13
2022-08-17T05:01:23.793Z,98545.78
2022-08-17T05:03:53.318Z,98552.81
2022-08-17T05:06:20.998Z,98562.97
2022-08-17T05:08:48.242Z,98566.44
2022-08-17T05:11:15.991Z,98553.06
2022-08-17T05:13:43.628Z,98553.78
2022-08-17T05:16:11.880Z,98553.16
2022-08-17T05:18:39.289Z,98558.88
2022-08-17T05:21:07.809Z,98559.03
2022-08-17T05:23:43.111Z,98555.00
2022-08-17T05:26:25.452Z,98559.91
2022-08-17T05:28:55.533Z,98570.22
2022-08-17T05:31:25.423Z,98566.16
2022-08-17T05:33:53.401Z,98567.31
2022-08-17T05:36:42.300Z,98560.50
2022-08-17T05:39:08.536Z,98563.16
2022-08-17T05:41:42.958Z,98569.72
2022-08-17T05:44:10.222Z,98567.50
2022-08-17T05:46:44.038Z,98563.63
2022-08-17T05:49:15.696Z,98565.28
2022-08-17T05:52:13.872Z,98571.38
2022-08-17T05:54:55.669Z,98574.31
2022-08-17T05:57:54.075Z,98570.38
2022-08-17T06:00:30.240Z,98564.50
2022-08-17T06:03:41.799Z,98566.63
2022-08-17T06:06:41.048Z,98575.81
2022-08-17T06:09:11.013Z,98570.75
2022-08-17T06:11:53.559Z,98569.59
2022-08-17T06:14:52.338Z,98574.50
2022-08-17T06:17:24.073Z,98578.44
2022-08-17T06:19:59.839Z,98574.00
2022-08-17T06:22:33.973Z,98569.88
2022-08-17T06:25:10.229Z,98577.91
2022-08-17T06:27:53.847Z,98565.13
2022-08-17T06:30:36.739Z,98564.78
2022-08-17T06:33:37.785Z,98565.22
2022-08-17T06:36:29.430Z,98556.34
2022-08-17T06:39:33.011Z,98558.56
2022-08-17T06:42:54.882Z,98562.19
2022-08-17T06:45:22.828Z,98557.63
2022-08-17T06:48:14.159Z,98556.72
2022-08-17T06:53:48.946Z,98547.28
2022-08-17T06:56:54.320Z,98547.91
2022-08-17T06:59:55.025Z,98552.78
2022-08-17T07:02:53.291Z,98542.22
2022-08-17T07:05:27.269Z,98543.94
2022-08-17T07:08:19.297Z,98545.00
2022-08-17T07:10:57.724Z,98547.34
2022-08-17T07:14:04.874Z,98545.91
2022-08-17T07:16:41.212Z,98545.66
2022-08-17T07:19:10.905Z,98553.25
2022-08-17T07:22:09.104Z,98543.19
2022-08-17T07:24:59.706Z,98558.09
2022-08-17T07:27:32.950Z,98555.75
2022-08-17T07:30:10.967Z,98548.53
2022-08-17T07:33:09.171Z,98551.81
2022-08-17T07:35:48.264Z,98550.94
2022-08-17T07:38:24.857Z,98555.78
2022-08-17T07:41:03.261Z,98547.41
2022-08-17T07:43:39.635Z,98545.16
2022-08-17T07:46:51.602Z,98548.00
2022-08-17T07:49:36.088Z,98554.97
2022-08-17T07:52:50.594Z,98553.19
2022-08-17T07:55:35.471Z,98551.06
2022-08-17T07:58:03.708Z,98548.34
2022-08-17T08:00:33.010Z,98546.56
2022-08-17T08:03:34.380Z,98554.94
2022-08-17T08:06:03.650Z,98549.34
2022-08-17T08:08:38.184Z,98543.53
2022-08-17T08:11:12.323Z,98559.97
2022-08-17T08:13:45.129Z,98548.19
2022-08-17T08:16:24.555Z,98547.50
2022-08-17T08:19:02.555Z,98546.06
2022-08-17T08:21:56.480Z,98536.25
2022-08-17T08:24:37.064Z,98538.22
2022-08-17T08:27:55.363Z,98535.34
2022-08-17T08:30:23.628Z,98536.34
2022-08-17T08:33:41.327Z,98532.56
2022-08-17T08:37:14.545Z,98532.84
2022-08-17T08:39:47.497Z,98527.63
2022-08-17T08:43:04.940Z,98529.53
2022-08-17T08:46:09.789Z,98534.22
2022-08-17T08:49:11.962Z,98530.22
2022-08-17T08:51:52.497Z,98519.31
2022-08-17T08:55:05.341Z,98527.06
2022-08-17T08:57:40.975Z,98516.22
2022-08-17T09:00:17.533Z,98519.84
2022-08-17T09:03:52.688Z,98517.50
2022-08-17T09:06:51.285Z,98520.03
2022-08-17T09:10:27.079Z,98519.81
2022-08-17T09:13:54.391Z,98524.31
2022-08-17T09:16:58.197Z,98527.66
2022-08-17T09:19:49.331Z,98522.13
2022-08-17T09:22:36.120Z,98517.28
2022-08-17T09:25:28.482Z,98518.59
2022-08-17T09:28:08.474Z,98514.34
2022-08-17T09:30:47.555Z,98510.09
2022-08-17T09:33:26.188Z,98499.66
2022-08-17T09:35:57.686Z,98500.22
2022-08-17T09:38:49.168Z,98510.41
2022-08-17T09:41:38.952Z,98500.91
2022-08-17T09:44:23.724Z,98500.53
2022-08-17T09:47:25.725Z,98500.16
2022-08-17T09:53:03.253Z,98499.59
2022-08-17T09:55:51.912Z,98503.63
2022-08-17T09:58:29.464Z,98500.81
2022-08-17T10:01:33.336Z,98505.72
2022-08-17T10:04:29.638Z,98499.00
2022-08-17T10:07:15.793Z,98493.88
2022-08-17T10:10:04.513Z,98497.97
2022-08-17T10:12:53.311Z,98498.84
2022-08-17T10:16:12.310Z,98500.91
2022-08-17T10:18:47.557Z,98499.75
2022-08-17T10:21:36.451Z,98495.38
2022-08-17T10:25:21.638Z,98501.50
2022-08-17T10:27:58.097Z,98503.13
2022-08-17T10:30:29.195Z,98500.41
2022-08-17T10:33:03.572Z,98489.09
2022-08-17T10:35:49.644Z,98491.19
2022-08-17T10:38:25.605Z,98494.41
2022-08-17T10:41:27.156Z,98488.72
2022-08-17T10:44:37.031Z,98492.06
2022-08-17T10:47:08.608Z,98488.13
2022-08-17T10:49:39.548Z,98490.94
2022-08-17T10:52:28.154Z,98491.38
2022-08-17T10:54:58.088Z,98494.63
2022-08-17T10:57:34.477Z,98484.94
2022-08-17T11:00:37.830Z,98484.94
2022-08-17T11:03:20.572Z,98480.59
2022-08-17T11:06:38.934Z,98483.81
2022-08-17T11:09:23.185Z,98477.53
2022-08-17T11:12:15.005Z,98482.78
2022-08-17T11:15:14.834Z,98492.00
2022-08-17T11:18:42.837Z,98483.16
2022-08-17T11:21:47.667Z,98477.53
2022-08-17T11:24:30.596Z,98479.97
2022-08-17T11:27:30.181Z,98477.16
2022-08-17T11:30:13.390Z,98460.59
2022-08-17T11:32:54.811Z,98473.88
2022-08-17T11:35:22.448Z,98461.81
2022-08-17T11:38:28.558Z,98459.31
2022-08-17T11:41:10.820Z,98458.94
2022-08-17T11:43:43.476Z,98460.19
2022-08-17T11:47:00.854Z,98458.59
2022-08-17T11:50:10.990Z,98455.88
2022-08-17T11:52:48.910Z,98453.81
2022-08-17T11:55:38.429Z,98443.03
2022-08-17T11:58:16.349Z,98437.00
2022-08-17T12:00:46.647Z,98434.66
2022-08-17T12:03:26.266Z,98433.03
2022-08-17T12:06:04.882Z,98422.19
2022-08-17T12:08:34.724Z,98429.84
2022-08-17T12:11:19.013Z,98421.03
2022-08-17T12:14:07.882Z,98411.06
2022-08-17T12:16:35.345Z,98417.53
2022-08-17T12:19:05.291Z,98415.25
2022-08-17T12:22:33.396Z,98425.66
2022-08-17T12:25:20.313Z,98417.59
2022-08-17T12:28:04.766Z,98410.31
2022-08-17T12:30:34.781Z,98407.84
2022-08-17T12:33:02.655Z,98418.38
2022-08-17T12:35:39.072Z,98420.34
2022-08-17T12:38:26.878Z,98403.50
2022-08-17T12:40:59.839Z,98402.31
2022-08-17T12:43:32.975Z,98413.94
2022-08-17T12:46:15.143Z,98408.31
2022-08-17T12:48:59.400Z,98404.31
2022-08-17T12:51:29.219Z,98405.94
2022-08-17T12:53:57.047Z,98408.34
2022-08-17T12:56:24.410Z,98413.22
2022-08-17T12:58:53.600Z,98412.03
2022-08-17T13:01:23.454Z,98405.59
2022-08-17T13:03:54.802Z,98409.22
2022-08-17T13:06:35.772Z,98408.88
2022-08-17T13:09:35.868Z,98406.06
2022-08-17T13:12:08.529Z,98400.44
2022-08-17T13:14:36.249Z,98401.63
2022-08-17T13:17:09.907Z,98400.84
2022-08-17T13:19:50.187Z,98394.88
2022-08-17T13:22:23.541Z,98390.47
2022-08-17T13:25:08.484Z,98390.47
2022-08-17T13:27:35.951Z,98398.19
2022-08-17T13:30:12.208Z,98397.78
2022-08-17T13:32:48.691Z,98389.75
2022-08-17T13:35:45.931Z,98392.59
2022-08-17T13:38:45.812Z,98391.78
2022-08-17T13:41:35.742Z,98391.78
2022-08-17T13:44:23.370Z,98390.16
2022-08-17T13:46:57.117Z,98370.81
2022-08-17T13:49:24.741Z,98380.91
2022-08-17T13:52:33.861Z,98375.25
2022-08-17T13:55:06.925Z,98373.75
2022-08-17T13:57:35.561Z,98371.31
2022-08-17T14:00:30.658Z,98368.13
2022-08-17T14:03:04.062Z,98374.56
2022-08-17T14:05:33.801Z,98381.44
2022-08-17T14:08:06.805Z,98374.66
2022-08-17T14:10:36.503Z,98378.31
2022-08-17T14:13:05.022Z,98379.56
2022-08-17T14:15:55.792Z,98377.13
2022-08-17T14:18:42.035Z,98374.69
2022-08-17T14:21:08.530Z,98377.13
2022-08-17T14:23:36.834Z,98379.28
2022-08-17T14:26:05.635Z,98382.09
2022-08-17T14:28:33.084Z,98371.66
2022-08-17T14:31:03.688Z,98362.00
2022-08-17T14:33:30.920Z,98368.03
2022-08-17T14:35:58.298Z,98370.09
2022-08-17T14:38:25.575Z,98374.53
2022-08-17T14:40:53.516Z,98368.13
2022-08-17T14:43:21.079Z,98370.94
2022-08-17T14:45:48.338Z,98374.16
2022-08-17T14:48:15.963Z,98376.19
2022-08-17T14:50:44.316Z,98376.16
2022-08-17T14:53:16.179Z,98371.72
2022-08-17T14:55:47.206Z,98376.16
2022-08-17T14:58:15.932Z,98375.69
2022-08-17T15:00:43.751Z,98382.16
2022-08-17T15:03:11.869Z,98370.34
2022-08-17T15:05:40.143Z,98374.44
2022-08-17T15:08:08.603Z,98368.34
2022-08-17T15:10:37.053Z,98381.72
2022-08-17T15:13:04.757Z,98388.94
2022-08-17T15:15:32.095Z,98391.84
2022-08-17T15:18:00.077Z,98386.72
2022-08-17T15:20:30.371Z,98383.13
2022-08-17T15:22:59.036Z,98385.13
2022-08-17T15:25:32.382Z,98387.94
2022-08-17T15:28:01.295Z,98391.47
2022-08-17T15:30:30.015Z,98396.38
2022-08-17T15:32:59.427Z,98386.69
2022-08-17T15:35:32.726Z,98386.81
2022-08-17T15:38:10.583Z,98392.84
2022-08-17T15:40:44.055Z,98382.78
2022-08-17T15:43:23.319Z,98375.09
2022-08-17T15:46:01.969Z,98381.53
2022-08-17T15:48:43.933Z,98380.34
2022-08-17T15:51:28.251Z,98377.50
2022-08-17T15:54:00.376Z,98373.09
2022-08-17T15:56:32.178Z,98378.28
2022-08-17T15:59:00.194Z,98369.44
2022-08-17T16:03:01.824Z,98371.44
2022-08-17T16:04:30.382Z,98379.91
2022-08-17T16:06:59.758Z,98383.50
2022-08-17T16:09:27.776Z,98385.94
2022-08-17T16:11:56.140Z,98374.63
2022-08-17T16:14:33.711Z,98372.19
2022-08-17T16:17:04.662Z,98378.56
2022-08-17T16:19:33.393Z,98376.56
2022-08-17T16:22:01.077Z,98368.53
2022-08-17T16:24:28.427Z,98371.28
2022-08-17T16:26:55.901Z,98379.31
2022-08-17T16:29:23.302Z,98375.66
2022-08-17T16:31:51.433Z,98384.09
2022-08-17T16:34:19.106Z,98373.25
2022-08-17T16:36:53.581Z,98377.66
2022-08-17T16:39:29.434Z,98376.78
2022-08-17T16:41:57.559Z,98389.63
2022-08-17T16:44:31.827Z,98383.94
2022-08-17T16:47:01.370Z,98387.94
2022-08-17T16:49:37.382Z,98393.03
2022-08-17T16:52:10.697Z,98387.41
2022-08-17T16:54:43.745Z,98386.19
2022-08-17T16:57:13.268Z,98386.19
2022-08-17T16:59:44.901Z,98391.75
2022-08-17T17:02:17.302Z,98386.84
2022-08-17T17:05:19.301Z,98390.06
2022-08-17T17:08:08.962Z,98393.19
2022-08-17T17:10:50.104Z,98387.06
2022-08-17T17:13:26.776Z,98399.94
2022-08-17T17:16:01.360Z,98397.44
2022-08-17T17:18:42.729Z,98398.19
2022-08-17T17:21:15.205Z,98404.94
2022-08-17T17:23:59.770Z,98402.44
2022-08-17T17:26:49.683Z,98407.13
2022-08-17T17:29:48.817Z,98411.91
2022-08-17T17:32:41.594Z,98406.19
2022-08-17T17:35:17.567Z,98409.28
2022-08-17T17:37:46.780Z,98403.53
2022-08-17T17:40:24.584Z,98410.72
2022-08-17T17:42:55.514Z,98415.41
2022-08-17T17:45:36.110Z,98416.91
2022-08-17T17:48:03.708Z,98418.78
2022-08-17T17:50:43.942Z,98417.91
2022-08-17T17:53:41.835Z,98432.22
2022-08-17T17:56:43.743Z,98420.06
2022-08-17T17:59:23.001Z,98435.19
2022-08-17T18:01:59.950Z,98433.50
2022-08-17T18:04:36.279Z,98433.78
2022-08-17T18:07:23.903Z,98441.66
2022-08-17T18:10:19.567Z,98441.13
2022-08-17T18:13:22.025Z,98439.78
2022-08-17T18:15:55.741Z,98436.38
2022-08-17T18:18:38.801Z,98437.13
2022-08-17T18:21:16.967Z,98439.78
2022-08-17T18:24:07.627Z,98443.66
2022-08-17T18:26:37.884Z,98449.56
2022-08-17T18:29:22.593Z,98456.63
2022-08-17T18:32:19.777Z,98444.16
2022-08-17T18:34:51.976Z,98448.84
2022-08-17T18:37:49.372Z,98458.00
2022-08-17T18:40:19.814Z,98461.06
2022-08-17T18:43:11.517Z,98463.41
2022-08-17T18:45:51.335Z,98463.69
2022-08-17T18:51:40.629Z,98476.25
2022-08-17T18:54:25.469Z,98471.72
2022-08-17T18:56:56.783Z,98473.19
2022-08-17T18:59:45.384Z,98489.09
2022-08-17T19:02:22.083Z,98486.19
2022-08-17T19:05:13.653Z,98488.81
2022-08-17T19:07:48.167Z,98491.16
2022-08-17T19:10:46.354Z,98493.75
2022-08-17T19:13:24.372Z,98495.75
2022-08-17T19:16:15.002Z,98500.56
2022-08-17T19:19:15.043Z,98500.81
2022-08-17T19:22:13.713Z,98511.91
2022-08-17T19:25:16.931Z,98509.25
2022-08-17T19:28:01.798Z,98507.50
2022-08-17T19:30:30.933Z,98504.63
2022-08-17T19:32:58.517Z,98515.34
2022-08-17T19:35:46.135Z,98521.66
2022-08-17T19:38:34.938Z,98512.78
2022-08-17T19:41:30.036Z,98511.06
2022-08-17T19:44:01.511Z,98514.25
2022-08-17T19:46:50.052Z,98510.44
2022-08-17T19:49:52.127Z,98505.06
2022-08-17T19:53:47.385Z,98511.84
2022-08-17T19:56:25.389Z,98505.66
2022-08-17T19:59:51.627Z,98505.47
2022-08-17T20:02:26.503Z,98495.81
2022-08-17T20:05:01.483Z,98503.72
2022-08-17T20:08:00.996Z,98499.56
2022-08-17T20:11:01.744Z,98487.47
2022-08-17T20:13:50.535Z,98496.06
2022-08-17T20:16:19.931Z,98494.31
2022-08-17T20:19:01.825Z,98490.13
2022-08-17T20:21:53.285Z,98499.34
2022-08-17T20:24:35.865Z,98495.63
2022-08-17T20:27:12.083Z,98503.19
2022-08-17T20:30:00.706Z,98497.88
2022-08-17T20:32:52.023Z,98499.38
2022-08-17T20:35:33.305Z,98500.06
2022-08-17T20:38:12.275Z,98492.41
2022-08-17T20:41:04.079Z,98488.69
2022-08-17T20:43:34.583Z,98496.59
2022-08-17T20:46:38.410Z,98492.88
2022-08-17T20:49:15.043Z,98491.94
2022-08-17T20:52:09.922Z,98489.88
2022-08-17T20:54:54.350Z,98484.94
2022-08-17T20:57:36.751Z,98488.94
2022-08-17T21:00:17.037Z,98485.56
2022-08-17T21:02:52.349Z,98484.72
2022-08-17T21:05:59.836Z,98478.94
2022-08-17T21:08:36.464Z,98485.66
2022-08-17T21:12:02.788Z,98474.34
2022-08-17T21:14:34.424Z,98479.81
2022-08-17T21:17:19.560Z,98483.31
2022-08-17T21:20:12.222Z,98474.81
2022-08-17T21:23:05.304Z,98482.72
2022-08-17T21:25:51.614Z,98486.22
2022-08-17T21:28:36.902Z,98484.94
2022-08-17T21:31:41.037Z,98487.59
2022-08-17T21:34:17.139Z,98492.38
2022-08-17T21:36:46.253Z,98484.69
2022-08-17T21:39:24.231Z,98487.72
2022-08-17T21:42:00.740Z,98484.09
2022-08-17T21:44:46.373Z,98483.66
2022-08-17T21:47:24.688Z,98493.19
2022-08-17T21:49:54.210Z,98484.31
2022-08-17T21:52:24.939Z,98486.06
2022-08-17T21:54:58.179Z,98482.34
2022-08-17T21:57:27.843Z,98492.69
2022-08-17T22:00:01.897Z,98500.59
2022-08-17T22:02:35.653Z,98500.13
2022-08-17T22:05:07.697Z,98514.44
2022-08-17T22:07:51.028Z,98514.78
2022-08-17T22:10:41.151Z,98523.03
2022-08-17T22:13:24.338Z,98530.09
2022-08-17T22:16:28.648Z,98541.97
2022-08-17T22:18:58.128Z,98540.97
2022-08-17T22:21:26.264Z,98526.28
2022-08-17T22:24:21.718Z,98545.16
2022-08-17T22:26:59.808Z,98547.94
2022-08-17T22:29:58.630Z,98548.50
2022-08-17T22:32:32.125Z,98556.72
2022-08-17T22:35:27.115Z,98553.47
2022-08-17T22:37:55.217Z,98555.66
2022-08-17T22:40:32.905Z,98559.94
2022-08-17T22:43:03.624Z,98555.97
2022-08-17T22:45:31.396Z,98549.13
2022-08-17T22:48:02.236Z,98549.31
2022-08-17T22:50:33.214Z,98556.53
2022-08-17T22:53:35.214Z,98552.59
2022-08-17T22:56:20.733Z,98551.78
2022-08-17T22:59:14.297Z,98552.44
2022-08-17T23:01:45.363Z,98558.38
2022-08-17T23:04:36.589Z,98552.69
2022-08-17T23:07:04.114Z,98557.44
2022-08-17T23:09:31.400Z,98563.22
2022-08-17T23:11:59.565Z,98566.31
2022-08-17T23:14:31.918Z,98563.53
2022-08-17T23:16:59.858Z,98573.88
2022-08-17T23:19:28.610Z,98560.28
2022-08-17T23:21:57.654Z,98548.19
2022-08-17T23:24:32.014Z,98559.81
2022-08-17T23:26:59.405Z,98561.44
2022-08-17T23:29:29.459Z,98556.56
2022-08-17T23:32:01.333Z,98555.59
2022-08-17T23:34:29.359Z,98560.97
2022-08-17T23:36:56.682Z,98563.59
2022-08-17T23:39:27.818Z,98556.41
2022-08-17T23:41:59.417Z,98551.16
2022-08-17T23:44:27.414Z,98548.13
2022-08-17T23:46:55.203Z,98553.81
2022-08-17T23:49:23.546Z,98531.03
2022-08-17T23:51:52.495Z,98542.88
2022-08-17T23:54:33.721Z,98544.84
2022-08-17T23:57:02.784Z,98533.56
2022-08-17T23:59:30.062Z,98515.72
